sensor_id;sensor_type;location;lat;lon;timestamp;temperature;humidity
14357;DHT22;7262;48.764;9.166;2024-03-08T00:00:18;4.20;99.90
14357;DHT22;7262;48.764;9.166;2024-03-08T00:02:45;4.10;99.90
14357;DHT22;7262;48.764;9.166;2024-03-08T00:05:12;4.10;99.90
14357;DHT22;7262;48.764;9.166;2024-03-08T00:07:39;4.10;99.90
14357;DHT22;7262;48.764;9.166;2024-03-08T00:10:08;4.10;99.90
14357;DHT22;7262;48.764;9.166;2024-03-08T00:12:36;4.30;99.90
14357;DHT22;7262;48.764;9.166;2024-03-08T00:15:03;4.20;99.90
14357;DHT22;7262;48.764;9.166;2024-03-08T00:17:31;4.10;99.90
14357;DHT22;7262;48.764;9.166;2024-03-08T00:19:58;4.10;99.90
14357;DHT22;7262;48.764;9.166;2024-03-08T00:22:25;4.00;99.90
14357;DHT22;7262;48.764;9.166;2024-03-08T00:24:51;4.00;99.90
14357;DHT22;7262;48.764;9.166;2024-03-08T00:27:20;4.00;99.90
14357;DHT22;7262;48.764;9.166;2024-03-08T00:29:47;3.90;99.90
14357;DHT22;7262;48.764;9.166;2024-03-08T00:32:14;3.90;99.90
14357;DHT22;7262;48.764;9.166;2024-03-08T00:34:42;3.80;99.90
14357;DHT22;7262;48.764;9.166;2024-03-08T00:37:09;3.80;99.90
14357;DHT22;7262;48.764;9.166;2024-03-08T00:39:36;3.80;99.90
14357;DHT22;7262;48.764;9.166;2024-03-08T00:42:03;3.70;99.90
14357;DHT22;7262;48.764;9.166;2024-03-08T00:44:31;3.60;99.90
14357;DHT22;7262;48.764;9.166;2024-03-08T00:46:58;3.50;99.90
14357;DHT22;7262;48.764;9.166;2024-03-08T00:49:25;3.50;99.90
14357;DHT22;7262;48.764;9.166;2024-03-08T00:51:51;3.40;99.90
14357;DHT22;7262;48.764;9.166;2024-03-08T00:54:18;3.30;99.90
14357;DHT22;7262;48.764;9.166;2024-03-08T00:56:45;3.20;99.90
14357;DHT22;7262;48.764;9.166;2024-03-08T00:59:12;3.20;99.90
14357;DHT22;7262;48.764;9.166;2024-03-08T01:01:41;3.20;99.90
14357;DHT22;7262;48.764;9.166;2024-03-08T01:04:09;3.10;99.90
14357;DHT22;7262;48.764;9.166;2024-03-08T01:06:36;3.00;99.90
14357;DHT22;7262;48.764;9.166;2024-03-08T01:09:03;3.00;99.90
14357;DHT22;7262;48.764;9.166;2024-03-08T01:11:32;3.00;99.90
14357;DHT22;7262;48.764;9.166;2024-03-08T01:13:59;3.00;99.90
14357;DHT22;7262;48.764;9.166;2024-03-08T01:16:25;2.90;99.90
14357;DHT22;7262;48.764;9.166;2024-03-08T01:18:54;2.90;99.90
14357;DHT22;7262;48.764;9.166;2024-03-08T01:21:20;2.90;99.90
14357;DHT22;7262;48.764;9.166;2024-03-08T01:23:47;2.80;99.90
14357;DHT22;7262;48.764;9.166;2024-03-08T01:26:14;2.70;99.90
14357;DHT22;7262;48.764;9.166;2024-03-08T01:28:41;2.70;99.90
14357;DHT22;7262;48.764;9.166;2024-03-08T01:31:08;2.70;99.90
14357;DHT22;7262;48.764;9.166;2024-03-08T01:33:35;2.60;99.90
14357;DHT22;7262;48.764;9.166;2024-03-08T01:36:04;2.60;99.90
14357;DHT22;7262;48.764;9.166;2024-03-08T01:38:31;2.50;99.90
14357;DHT22;7262;48.764;9.166;2024-03-08T01:40:59;2.60;99.90
14357;DHT22;7262;48.764;9.166;2024-03-08T01:43:26;2.60;99.90
14357;DHT22;7262;48.764;9.166;2024-03-08T01:45:53;2.60;99.90
14357;DHT22;7262;48.764;9.166;2024-03-08T01:48:21;2.60;99.90
14357;DHT22;7262;48.764;9.166;2024-03-08T01:50:49;2.50;99.90
14357;DHT22;7262;48.764;9.166;2024-03-08T01:53:18;2.40;99.90
14357;DHT22;7262;48.764;9.166;2024-03-08T01:55:46;2.40;99.90
14357;DHT22;7262;48.764;9.166;2024-03-08T01:58:14;2.40;99.90
14357;DHT22;7262;48.764;9.166;2024-03-08T02:00:41;2.40;99.90
14357;DHT22;7262;48.764;9.166;2024-03-08T02:03:09;2.40;99.90
14357;DHT22;7262;48.764;9.166;2024-03-08T02:05:37;2.40;99.90
14357;DHT22;7262;48.764;9.166;2024-03-08T02:08:06;2.40;99.90
14357;DHT22;7262;48.764;9.166;2024-03-08T02:10:34;2.40;99.90
14357;DHT22;7262;48.764;9.166;2024-03-08T02:13:01;2.40;99.90
14357;DHT22;7262;48.764;9.166;2024-03-08T02:18:10;2.30;99.90
14357;DHT22;7262;48.764;9.166;2024-03-08T02:20:38;2.30;99.90
14357;DHT22;7262;48.764;9.166;2024-03-08T02:23:05;2.30;99.90
14357;DHT22;7262;48.764;9.166;2024-03-08T02:25:32;2.20;99.90
14357;DHT22;7262;48.764;9.166;2024-03-08T02:27:58;2.20;99.90
14357;DHT22;7262;48.764;9.166;2024-03-08T02:30:25;2.10;99.90
14357;DHT22;7262;48.764;9.166;2024-03-08T02:32:55;2.10;99.90
14357;DHT22;7262;48.764;9.166;2024-03-08T02:35:23;2.10;99.90
14357;DHT22;7262;48.764;9.166;2024-03-08T02:37:51;2.10;99.90
14357;DHT22;7262;48.764;9.166;2024-03-08T02:40:18;2.10;99.90
14357;DHT22;7262;48.764;9.166;2024-03-08T02:42:45;2.10;99.90
14357;DHT22;7262;48.764;9.166;2024-03-08T02:45:11;2.10;99.90
14357;DHT22;7262;48.764;9.166;2024-03-08T02:47:39;2.20;99.90
14357;DHT22;7262;48.764;9.166;2024-03-08T02:50:06;2.20;99.90
14357;DHT22;7262;48.764;9.166;2024-03-08T02:52:34;2.20;99.90
14357;DHT22;7262;48.764;9.166;2024-03-08T02:55:03;2.10;99.90
14357;DHT22;7262;48.764;9.166;2024-03-08T02:57:31;2.10;99.90
14357;DHT22;7262;48.764;9.166;2024-03-08T02:59:58;2.00;99.90
14357;DHT22;7262;48.764;9.166;2024-03-08T03:02:26;2.00;99.90
14357;DHT22;7262;48.764;9.166;2024-03-08T03:04:53;2.00;99.90
14357;DHT22;7262;48.764;9.166;2024-03-08T03:07:21;2.00;99.90
14357;DHT22;7262;48.764;9.166;2024-03-08T03:09:48;2.10;99.90
14357;DHT22;7262;48.764;9.166;2024-03-08T03:12:18;2.00;99.90
14357;DHT22;7262;48.764;9.166;2024-03-08T03:14:44;1.90;99.90
14357;DHT22;7262;48.764;9.166;2024-03-08T03:17:11;1.90;99.90
14357;DHT22;7262;48.764;9.166;2024-03-08T03:19:40;2.10;99.90
14357;DHT22;7262;48.764;9.166;2024-03-08T03:22:07;2.10;99.90
14357;DHT22;7262;48.764;9.166;2024-03-08T03:24:35;2.20;99.90
14357;DHT22;7262;48.764;9.166;2024-03-08T03:27:03;2.30;99.90
14357;DHT22;7262;48.764;9.166;2024-03-08T03:29:37;2.40;99.90
14357;DHT22;7262;48.764;9.166;2024-03-08T03:32:05;2.40;99.90
14357;DHT22;7262;48.764;9.166;2024-03-08T03:34:33;2.40;99.90
14357;DHT22;7262;48.764;9.166;2024-03-08T03:37:01;2.50;99.90
14357;DHT22;7262;48.764;9.166;2024-03-08T03:39:28;2.50;99.90
14357;DHT22;7262;48.764;9.166;2024-03-08T03:41:57;2.50;99.90
14357;DHT22;7262;48.764;9.166;2024-03-08T03:44:23;2.60;99.90
14357;DHT22;7262;48.764;9.166;2024-03-08T03:46:52;2.70;99.90
14357;DHT22;7262;48.764;9.166;2024-03-08T03:49:19;2.60;99.90
14357;DHT22;7262;48.764;9.166;2024-03-08T03:51:45;2.60;99.90
14357;DHT22;7262;48.764;9.166;2024-03-08T03:54:13;2.60;99.90
14357;DHT22;7262;48.764;9.166;2024-03-08T03:56:39;2.60;99.90
14357;DHT22;7262;48.764;9.166;2024-03-08T03:59:06;2.60;99.90
14357;DHT22;7262;48.764;9.166;2024-03-08T04:01:33;2.60;99.90
14357;DHT22;7262;48.764;9.166;2024-03-08T04:04:02;2.60;99.90
14357;DHT22;7262;48.764;9.166;2024-03-08T04:06:28;2.60;99.90
14357;DHT22;7262;48.764;9.166;2024-03-08T04:08:55;2.60;99.90
14357;DHT22;7262;48.764;9.166;2024-03-08T04:11:22;2.60;99.90
14357;DHT22;7262;48.764;9.166;2024-03-08T04:13:50;2.50;99.90
14357;DHT22;7262;48.764;9.166;2024-03-08T04:16:18;2.50;99.90
14357;DHT22;7262;48.764;9.166;2024-03-08T04:18:44;2.50;99.90
14357;DHT22;7262;48.764;9.166;2024-03-08T04:21:13;2.50;99.90
14357;DHT22;7262;48.764;9.166;2024-03-08T04:23:39;2.50;99.90
14357;DHT22;7262;48.764;9.166;2024-03-08T04:26:06;2.50;99.90
14357;DHT22;7262;48.764;9.166;2024-03-08T04:28:34;2.40;99.90
14357;DHT22;7262;48.764;9.166;2024-03-08T04:31:02;2.40;99.90
14357;DHT22;7262;48.764;9.166;2024-03-08T04:33:29;2.40;99.90
14357;DHT22;7262;48.764;9.166;2024-03-08T04:35:56;2.40;99.90
14357;DHT22;7262;48.764;9.166;2024-03-08T04:38:25;2.40;99.90
14357;DHT22;7262;48.764;9.166;2024-03-08T04:40:51;2.50;99.90
14357;DHT22;7262;48.764;9.166;2024-03-08T04:43:18;2.40;99.90
14357;DHT22;7262;48.764;9.166;2024-03-08T04:45:46;2.40;99.90
14357;DHT22;7262;48.764;9.166;2024-03-08T04:53:26;2.40;99.90
14357;DHT22;7262;48.764;9.166;2024-03-08T04:55:54;2.30;99.90
14357;DHT22;7262;48.764;9.166;2024-03-08T04:58:23;2.30;99.90
14357;DHT22;7262;48.764;9.166;2024-03-08T05:00:49;2.30;99.90
14357;DHT22;7262;48.764;9.166;2024-03-08T05:03:16;2.30;99.90
14357;DHT22;7262;48.764;9.166;2024-03-08T05:05:43;2.20;99.90
14357;DHT22;7262;48.764;9.166;2024-03-08T05:08:10;2.20;99.90
14357;DHT22;7262;48.764;9.166;2024-03-08T05:10:38;2.30;99.90
14357;DHT22;7262;48.764;9.166;2024-03-08T05:13:04;2.20;99.90
14357;DHT22;7262;48.764;9.166;2024-03-08T05:15:31;2.30;99.90
14357;DHT22;7262;48.764;9.166;2024-03-08T05:18:00;2.30;99.90
14357;DHT22;7262;48.764;9.166;2024-03-08T05:20:27;2.20;99.90
14357;DHT22;7262;48.764;9.166;2024-03-08T05:22:53;2.20;99.90
14357;DHT22;7262;48.764;9.166;2024-03-08T05:25:20;2.10;99.90
14357;DHT22;7262;48.764;9.166;2024-03-08T05:27:48;2.20;99.90
14357;DHT22;7262;48.764;9.166;2024-03-08T05:30:16;2.20;99.90
14357;DHT22;7262;48.764;9.166;2024-03-08T05:32:42;2.10;99.90
14357;DHT22;7262;48.764;9.166;2024-03-08T05:35:11;2.10;99.90
14357;DHT22;7262;48.764;9.166;2024-03-08T05:37:38;2.10;99.90
14357;DHT22;7262;48.764;9.166;2024-03-08T05:40:05;2.10;99.90
14357;DHT22;7262;48.764;9.166;2024-03-08T05:42:34;2.10;99.90
14357;DHT22;7262;48.764;9.166;2024-03-08T05:45:03;1.90;99.90
14357;DHT22;7262;48.764;9.166;2024-03-08T05:47:31;2.00;99.90
14357;DHT22;7262;48.764;9.166;2024-03-08T05:49:58;2.00;99.90
14357;DHT22;7262;48.764;9.166;2024-03-08T05:52:25;2.00;99.90
14357;DHT22;7262;48.764;9.166;2024-03-08T05:54:52;2.00;99.90
14357;DHT22;7262;48.764;9.166;2024-03-08T05:57:19;1.90;99.90
14357;DHT22;7262;48.764;9.166;2024-03-08T05:59:47;1.90;99.90
14357;DHT22;7262;48.764;9.166;2024-03-08T06:02:17;2.00;99.90
14357;DHT22;7262;48.764;9.166;2024-03-08T06:04:44;2.00;99.90
14357;DHT22;7262;48.764;9.166;2024-03-08T06:07:12;2.00;99.90
14357;DHT22;7262;48.764;9.166;2024-03-08T06:09:39;2.00;99.90
14357;DHT22;7262;48.764;9.166;2024-03-08T06:12:05;1.90;99.90
14357;DHT22;7262;48.764;9.166;2024-03-08T06:14:35;1.90;99.90
14357;DHT22;7262;48.764;9.166;2024-03-08T06:17:01;1.80;99.90
14357;DHT22;7262;48.764;9.166;2024-03-08T06:19:34;2.00;99.90
14357;DHT22;7262;48.764;9.166;2024-03-08T06:22:01;1.90;99.90
14357;DHT22;7262;48.764;9.166;2024-03-08T06:24:33;1.90;99.90
14357;DHT22;7262;48.764;9.166;2024-03-08T06:27:01;2.00;99.90
14357;DHT22;7262;48.764;9.166;2024-03-08T06:29:29;2.00;99.90
14357;DHT22;7262;48.764;9.166;2024-03-08T06:31:55;2.00;99.90
14357;DHT22;7262;48.764;9.166;2024-03-08T06:34:22;2.00;99.90
14357;DHT22;7262;48.764;9.166;2024-03-08T06:36:50;2.10;99.90
14357;DHT22;7262;48.764;9.166;2024-03-08T06:39:18;2.10;99.90
14357;DHT22;7262;48.764;9.166;2024-03-08T06:41:44;2.10;99.90
14357;DHT22;7262;48.764;9.166;2024-03-08T06:44:11;2.20;99.90
14357;DHT22;7262;48.764;9.166;2024-03-08T06:46:38;2.20;99.90
14357;DHT22;7262;48.764;9.166;2024-03-08T06:49:05;2.20;99.90
14357;DHT22;7262;48.764;9.166;2024-03-08T06:51:33;2.30;99.90
14357;DHT22;7262;48.764;9.166;2024-03-08T06:54:01;2.30;99.90
14357;DHT22;7262;48.764;9.166;2024-03-08T06:56:34;2.40;99.90
14357;DHT22;7262;48.764;9.166;2024-03-08T06:59:01;2.50;99.90
14357;DHT22;7262;48.764;9.166;2024-03-08T07:01:28;2.70;99.90
14357;DHT22;7262;48.764;9.166;2024-03-08T07:03:57;2.90;99.90
14357;DHT22;7262;48.764;9.166;2024-03-08T07:06:25;3.10;99.90
14357;DHT22;7262;48.764;9.166;2024-03-08T07:08:54;3.30;99.90
14357;DHT22;7262;48.764;9.166;2024-03-08T07:11:23;3.50;99.90
14357;DHT22;7262;48.764;9.166;2024-03-08T07:13:50;3.60;99.90
14357;DHT22;7262;48.764;9.166;2024-03-08T07:16:17;3.70;99.90
14357;DHT22;7262;48.764;9.166;2024-03-08T07:18:46;3.80;99.90
14357;DHT22;7262;48.764;9.166;2024-03-08T07:21:14;3.80;99.90
14357;DHT22;7262;48.764;9.166;2024-03-08T07:23:41;3.90;99.90
14357;DHT22;7262;48.764;9.166;2024-03-08T07:26:29;4.10;99.90
14357;DHT22;7262;48.764;9.166;2024-03-08T07:28:57;4.30;99.90
14357;DHT22;7262;48.764;9.166;2024-03-08T07:31:25;4.30;99.90
14357;DHT22;7262;48.764;9.166;2024-03-08T07:34:03;4.40;99.90
14357;DHT22;7262;48.764;9.166;2024-03-08T07:36:32;4.60;99.90
14357;DHT22;7262;48.764;9.166;2024-03-08T07:38:59;4.50;99.90
14357;DHT22;7262;48.764;9.166;2024-03-08T07:41:26;4.50;99.90
14357;DHT22;7262;48.764;9.166;2024-03-08T07:43:55;4.60;99.90
14357;DHT22;7262;48.764;9.166;2024-03-08T07:46:22;4.50;99.90
14357;DHT22;7262;48.764;9.166;2024-03-08T07:48:49;4.70;99.90
14357;DHT22;7262;48.764;9.166;2024-03-08T07:51:17;4.80;99.90
14357;DHT22;7262;48.764;9.166;2024-03-08T07:53:44;4.70;99.90
14357;DHT22;7262;48.764;9.166;2024-03-08T07:56:11;4.70;99.90
14357;DHT22;7262;48.764;9.166;2024-03-08T07:58:42;4.80;99.90
14357;DHT22;7262;48.764;9.166;2024-03-08T08:01:16;4.90;99.90
14357;DHT22;7262;48.764;9.166;2024-03-08T08:03:46;4.80;99.90
14357;DHT22;7262;48.764;9.166;2024-03-08T08:06:14;4.70;99.90
14357;DHT22;7262;48.764;9.166;2024-03-08T08:08:43;4.70;99.90
14357;DHT22;7262;48.764;9.166;2024-03-08T08:11:09;4.80;99.90
14357;DHT22;7262;48.764;9.166;2024-03-08T08:13:37;4.80;99.90
14357;DHT22;7262;48.764;9.166;2024-03-08T08:16:04;4.80;99.90
14357;DHT22;7262;48.764;9.166;2024-03-08T08:18:41;4.90;99.90
14357;DHT22;7262;48.764;9.166;2024-03-08T08:21:09;5.00;99.90
14357;DHT22;7262;48.764;9.166;2024-03-08T08:23:36;5.00;99.90
14357;DHT22;7262;48.764;9.166;2024-03-08T08:26:03;5.00;99.90
14357;DHT22;7262;48.764;9.166;2024-03-08T08:28:30;4.90;99.90
14357;DHT22;7262;48.764;9.166;2024-03-08T08:41:20;4.80;99.90
14357;DHT22;7262;48.764;9.166;2024-03-08T09:12:17;5.20;99.90
14357;DHT22;7262;48.764;9.166;2024-03-08T09:14:44;5.30;99.90
14357;DHT22;7262;48.764;9.166;2024-03-08T09:17:11;5.40;99.90
14357;DHT22;7262;48.764;9.166;2024-03-08T09:19:42;5.30;99.90
14357;DHT22;7262;48.764;9.166;2024-03-08T09:22:10;5.40;99.90
14357;DHT22;7262;48.764;9.166;2024-03-08T09:24:37;5.40;99.90
14357;DHT22;7262;48.764;9.166;2024-03-08T09:27:04;5.50;99.90
14357;DHT22;7262;48.764;9.166;2024-03-08T09:29:32;5.40;99.90
14357;DHT22;7262;48.764;9.166;2024-03-08T09:32:02;5.30;99.90
14357;DHT22;7262;48.764;9.166;2024-03-08T09:34:29;5.40;99.90
14357;DHT22;7262;48.764;9.166;2024-03-08T09:36:56;5.40;99.90
14357;DHT22;7262;48.764;9.166;2024-03-08T09:39:23;5.50;99.90
14357;DHT22;7262;48.764;9.166;2024-03-08T09:41:50;5.30;99.90
14357;DHT22;7262;48.764;9.166;2024-03-08T09:44:17;5.40;99.90
14357;DHT22;7262;48.764;9.166;2024-03-08T09:46:46;5.50;99.90
14357;DHT22;7262;48.764;9.166;2024-03-08T09:49:14;5.80;99.90
14357;DHT22;7262;48.764;9.166;2024-03-08T09:51:42;5.90;99.90
14357;DHT22;7262;48.764;9.166;2024-03-08T09:54:09;5.90;99.90
14357;DHT22;7262;48.764;9.166;2024-03-08T09:56:36;5.90;99.90
14357;DHT22;7262;48.764;9.166;2024-03-08T09:59:04;6.00;99.90
14357;DHT22;7262;48.764;9.166;2024-03-08T10:01:59;5.90;99.90
14357;DHT22;7262;48.764;9.166;2024-03-08T10:04:28;6.00;99.90
14357;DHT22;7262;48.764;9.166;2024-03-08T10:06:59;6.00;99.90
14357;DHT22;7262;48.764;9.166;2024-03-08T10:09:27;6.00;99.90
14357;DHT22;7262;48.764;9.166;2024-03-08T10:11:55;6.00;99.90
14357;DHT22;7262;48.764;9.166;2024-03-08T10:14:23;6.20;99.90
14357;DHT22;7262;48.764;9.166;2024-03-08T10:16:50;6.40;99.90
14357;DHT22;7262;48.764;9.166;2024-03-08T10:19:20;6.70;99.90
14357;DHT22;7262;48.764;9.166;2024-03-08T10:21:47;6.60;99.90
14357;DHT22;7262;48.764;9.166;2024-03-08T10:24:17;6.80;99.90
14357;DHT22;7262;48.764;9.166;2024-03-08T10:26:46;6.80;99.90
14357;DHT22;7262;48.764;9.166;2024-03-08T10:29:13;6.50;99.90
14357;DHT22;7262;48.764;9.166;2024-03-08T10:31:43;6.50;99.90
14357;DHT22;7262;48.764;9.166;2024-03-08T10:34:13;6.40;99.90
14357;DHT22;7262;48.764;9.166;2024-03-08T10:36:41;6.50;99.90
14357;DHT22;7262;48.764;9.166;2024-03-08T10:39:11;6.70;99.90
14357;DHT22;7262;48.764;9.166;2024-03-08T10:41:44;6.70;99.90
14357;DHT22;7262;48.764;9.166;2024-03-08T10:44:15;6.70;99.90
14357;DHT22;7262;48.764;9.166;2024-03-08T10:46:50;6.90;99.90
14357;DHT22;7262;48.764;9.166;2024-03-08T10:49:22;7.00;99.90
14357;DHT22;7262;48.764;9.166;2024-03-08T10:51:53;7.20;99.90
14357;DHT22;7262;48.764;9.166;2024-03-08T10:54:20;7.30;99.90
14357;DHT22;7262;48.764;9.166;2024-03-08T10:56:48;7.50;99.90
14357;DHT22;7262;48.764;9.166;2024-03-08T10:59:15;8.00;99.90
14357;DHT22;7262;48.764;9.166;2024-03-08T11:01:44;8.80;99.90
14357;DHT22;7262;48.764;9.166;2024-03-08T11:04:11;9.30;99.90
14357;DHT22;7262;48.764;9.166;2024-03-08T11:06:41;9.60;99.90
14357;DHT22;7262;48.764;9.166;2024-03-08T11:09:24;9.60;99.90
14357;DHT22;7262;48.764;9.166;2024-03-08T11:14:44;9.50;99.90
14357;DHT22;7262;48.764;9.166;2024-03-08T11:17:14;9.70;99.90
14357;DHT22;7262;48.764;9.166;2024-03-08T11:19:46;10.70;99.90
14357;DHT22;7262;48.764;9.166;2024-03-08T11:22:21;11.90;99.90
14357;DHT22;7262;48.764;9.166;2024-03-08T11:24:56;11.50;99.90
14357;DHT22;7262;48.764;9.166;2024-03-08T11:27:28;11.10;99.90
14357;DHT22;7262;48.764;9.166;2024-03-08T11:30:01;10.40;99.90
14357;DHT22;7262;48.764;9.166;2024-03-08T11:32:36;10.10;99.90
14357;DHT22;7262;48.764;9.166;2024-03-08T11:35:05;9.90;99.90
14357;DHT22;7262;48.764;9.166;2024-03-08T11:37:33;9.70;99.90
14357;DHT22;7262;48.764;9.166;2024-03-08T11:40:06;10.00;99.90
14357;DHT22;7262;48.764;9.166;2024-03-08T11:42:43;9.70;99.90
14357;DHT22;7262;48.764;9.166;2024-03-08T11:45:12;9.50;99.90
14357;DHT22;7262;48.764;9.166;2024-03-08T11:47:42;9.30;99.90
14357;DHT22;7262;48.764;9.166;2024-03-08T11:50:12;9.50;99.90
14357;DHT22;7262;48.764;9.166;2024-03-08T11:52:39;9.80;99.90
14357;DHT22;7262;48.764;9.166;2024-03-08T11:55:08;11.30;99.90
14357;DHT22;7262;48.764;9.166;2024-03-08T11:57:38;11.70;99.90
14357;DHT22;7262;48.764;9.166;2024-03-08T12:00:05;12.50;99.90
14357;DHT22;7262;48.764;9.166;2024-03-08T12:02:35;13.00;99.90
14357;DHT22;7262;48.764;9.166;2024-03-08T12:05:03;12.90;99.90
14357;DHT22;7262;48.764;9.166;2024-03-08T12:07:35;13.20;99.90
14357;DHT22;7262;48.764;9.166;2024-03-08T12:10:18;11.80;99.90
14357;DHT22;7262;48.764;9.166;2024-03-08T12:12:47;11.80;99.90
14357;DHT22;7262;48.764;9.166;2024-03-08T12:15:15;11.80;99.90
14357;DHT22;7262;48.764;9.166;2024-03-08T12:17:43;11.40;99.90
14357;DHT22;7262;48.764;9.166;2024-03-08T12:20:15;11.90;99.90
14357;DHT22;7262;48.764;9.166;2024-03-08T12:22:43;11.70;99.90
14357;DHT22;7262;48.764;9.166;2024-03-08T12:25:12;12.30;99.90
14357;DHT22;7262;48.764;9.166;2024-03-08T12:27:41;13.10;99.90
14357;DHT22;7262;48.764;9.166;2024-03-08T12:30:16;13.90;99.90
14357;DHT22;7262;48.764;9.166;2024-03-08T12:32:46;13.70;99.90
14357;DHT22;7262;48.764;9.166;2024-03-08T12:35:13;13.80;99.90
14357;DHT22;7262;48.764;9.166;2024-03-08T12:37:40;14.00;99.90
14357;DHT22;7262;48.764;9.166;2024-03-08T12:40:08;14.60;99.90
14357;DHT22;7262;48.764;9.166;2024-03-08T12:42:35;15.30;99.90
14357;DHT22;7262;48.764;9.166;2024-03-08T12:45:06;15.60;99.90
14357;DHT22;7262;48.764;9.166;2024-03-08T12:47:35;15.50;99.90
14357;DHT22;7262;48.764;9.166;2024-03-08T12:50:05;15.60;99.90
14357;DHT22;7262;48.764;9.166;2024-03-08T12:52:35;15.80;99.90
14357;DHT22;7262;48.764;9.166;2024-03-08T12:55:02;15.80;99.90
14357;DHT22;7262;48.764;9.166;2024-03-08T12:57:32;15.90;99.90
14357;DHT22;7262;48.764;9.166;2024-03-08T13:00:00;16.00;99.90
14357;DHT22;7262;48.764;9.166;2024-03-08T13:02:29;15.80;99.90
14357;DHT22;7262;48.764;9.166;2024-03-08T13:04:58;15.70;99.90
14357;DHT22;7262;48.764;9.166;2024-03-08T13:07:27;16.40;99.90
14357;DHT22;7262;48.764;9.166;2024-03-08T13:09:54;16.20;99.90
14357;DHT22;7262;48.764;9.166;2024-03-08T13:12:22;17.00;99.90
14357;DHT22;7262;48.764;9.166;2024-03-08T13:14:49;17.20;99.90
14357;DHT22;7262;48.764;9.166;2024-03-08T13:17:16;16.50;99.90
14357;DHT22;7262;48.764;9.166;2024-03-08T13:19:45;16.20;99.90
14357;DHT22;7262;48.764;9.166;2024-03-08T13:22:12;15.80;99.90
14357;DHT22;7262;48.764;9.166;2024-03-08T13:24:48;14.90;99.90
14357;DHT22;7262;48.764;9.166;2024-03-08T13:27:18;14.80;99.90
14357;DHT22;7262;48.764;9.166;2024-03-08T13:29:46;15.70;99.90
14357;DHT22;7262;48.764;9.166;2024-03-08T13:32:14;16.30;99.90
14357;DHT22;7262;48.764;9.166;2024-03-08T13:34:42;16.70;99.90
14357;DHT22;7262;48.764;9.166;2024-03-08T13:37:10;16.50;99.90
14357;DHT22;7262;48.764;9.166;2024-03-08T13:39:37;16.40;99.90
14357;DHT22;7262;48.764;9.166;2024-03-08T13:42:06;16.80;99.90
14357;DHT22;7262;48.764;9.166;2024-03-08T13:44:35;16.60;99.90
14357;DHT22;7262;48.764;9.166;2024-03-08T13:47:02;16.50;99.90
14357;DHT22;7262;48.764;9.166;2024-03-08T13:49:30;16.70;99.90
14357;DHT22;7262;48.764;9.166;2024-03-08T13:51:56;16.10;99.90
14357;DHT22;7262;48.764;9.166;2024-03-08T13:54:26;15.50;99.90
14357;DHT22;7262;48.764;9.166;2024-03-08T13:56:56;16.10;99.90
14357;DHT22;7262;48.764;9.166;2024-03-08T13:59:24;16.40;99.90
14357;DHT22;7262;48.764;9.166;2024-03-08T14:01:55;16.40;99.90
14357;DHT22;7262;48.764;9.166;2024-03-08T14:04:22;16.40;99.90
14357;DHT22;7262;48.764;9.166;2024-03-08T14:06:50;16.30;99.90
14357;DHT22;7262;48.764;9.166;2024-03-08T14:09:23;16.00;99.90
14357;DHT22;7262;48.764;9.166;2024-03-08T14:11:52;15.70;99.90
14357;DHT22;7262;48.764;9.166;2024-03-08T14:14:20;16.00;99.90
14357;DHT22;7262;48.764;9.166;2024-03-08T14:16:48;15.90;99.90
14357;DHT22;7262;48.764;9.166;2024-03-08T14:19:18;17.00;99.90
14357;DHT22;7262;48.764;9.166;2024-03-08T14:21:45;17.00;99.90
14357;DHT22;7262;48.764;9.166;2024-03-08T14:24:13;16.90;99.90
14357;DHT22;7262;48.764;9.166;2024-03-08T14:26:40;17.20;99.90
14357;DHT22;7262;48.764;9.166;2024-03-08T14:29:09;17.20;99.90
14357;DHT22;7262;48.764;9.166;2024-03-08T14:31:36;16.70;99.90
14357;DHT22;7262;48.764;9.166;2024-03-08T14:34:03;16.00;99.90
14357;DHT22;7262;48.764;9.166;2024-03-08T14:36:30;16.70;99.90
14357;DHT22;7262;48.764;9.166;2024-03-08T14:38:57;17.70;99.90
14357;DHT22;7262;48.764;9.166;2024-03-08T14:41:24;18.10;99.90
14357;DHT22;7262;48.764;9.166;2024-03-08T14:43:52;17.70;99.90
14357;DHT22;7262;48.764;9.166;2024-03-08T14:46:20;17.00;99.90
14357;DHT22;7262;48.764;9.166;2024-03-08T14:48:48;17.30;99.90
14357;DHT22;7262;48.764;9.166;2024-03-08T14:51:16;17.20;99.90
14357;DHT22;7262;48.764;9.166;2024-03-08T14:53:45;17.90;99.90
14357;DHT22;7262;48.764;9.166;2024-03-08T14:56:13;17.40;99.90
14357;DHT22;7262;48.764;9.166;2024-03-08T14:58:41;17.30;99.90
14357;DHT22;7262;48.764;9.166;2024-03-08T15:01:09;17.40;99.90
14357;DHT22;7262;48.764;9.166;2024-03-08T15:03:40;17.50;99.90
14357;DHT22;7262;48.764;9.166;2024-03-08T15:06:08;17.40;99.90
14357;DHT22;7262;48.764;9.166;2024-03-08T15:08:35;17.20;99.90
14357;DHT22;7262;48.764;9.166;2024-03-08T15:11:03;17.00;99.90
14357;DHT22;7262;48.764;9.166;2024-03-08T15:13:31;16.60;99.90
14357;DHT22;7262;48.764;9.166;2024-03-08T15:16:05;16.40;99.90
14357;DHT22;7262;48.764;9.166;2024-03-08T15:18:33;16.20;99.90
14357;DHT22;7262;48.764;9.166;2024-03-08T15:21:04;16.00;99.90
14357;DHT22;7262;48.764;9.166;2024-03-08T15:23:33;15.90;99.90
14357;DHT22;7262;48.764;9.166;2024-03-08T16:37:27;12.10;99.90
14357;DHT22;7262;48.764;9.166;2024-03-08T16:39:55;11.50;99.90
14357;DHT22;7262;48.764;9.166;2024-03-08T16:42:24;11.20;99.90
14357;DHT22;7262;48.764;9.166;2024-03-08T16:44:50;10.80;99.90
14357;DHT22;7262;48.764;9.166;2024-03-08T16:47:20;10.60;99.90
14357;DHT22;7262;48.764;9.166;2024-03-08T16:49:48;10.40;99.90
14357;DHT22;7262;48.764;9.166;2024-03-08T16:52:14;10.30;99.90
14357;DHT22;7262;48.764;9.166;2024-03-08T16:54:44;10.20;99.90
14357;DHT22;7262;48.764;9.166;2024-03-08T16:57:11;10.00;99.90
14357;DHT22;7262;48.764;9.166;2024-03-08T16:59:39;9.80;99.90
14357;DHT22;7262;48.764;9.166;2024-03-08T17:02:06;9.70;99.90
14357;DHT22;7262;48.764;9.166;2024-03-08T17:04:36;9.70;99.90
14357;DHT22;7262;48.764;9.166;2024-03-08T17:07:03;9.60;99.90
14357;DHT22;7262;48.764;9.166;2024-03-08T17:09:31;9.60;99.90
14357;DHT22;7262;48.764;9.166;2024-03-08T17:46:22;8.70;99.90
14357;DHT22;7262;48.764;9.166;2024-03-08T17:48:49;8.70;99.90
14357;DHT22;7262;48.764;9.166;2024-03-08T17:51:19;8.60;99.90
14357;DHT22;7262;48.764;9.166;2024-03-08T17:53:45;8.60;99.90
14357;DHT22;7262;48.764;9.166;2024-03-08T17:56:14;8.50;99.90
14357;DHT22;7262;48.764;9.166;2024-03-08T17:58:41;8.40;99.90
14357;DHT22;7262;48.764;9.166;2024-03-08T18:01:08;8.30;99.90
14357;DHT22;7262;48.764;9.166;2024-03-08T18:03:38;8.30;99.90
14357;DHT22;7262;48.764;9.166;2024-03-08T18:06:05;8.20;99.90
14357;DHT22;7262;48.764;9.166;2024-03-08T18:08:34;8.20;99.90
14357;DHT22;7262;48.764;9.166;2024-03-08T18:11:02;8.10;99.90
14357;DHT22;7262;48.764;9.166;2024-03-08T18:13:29;8.10;99.90
14357;DHT22;7262;48.764;9.166;2024-03-08T18:15:57;7.90;99.90
14357;DHT22;7262;48.764;9.166;2024-03-08T18:18:24;8.00;99.90
14357;DHT22;7262;48.764;9.166;2024-03-08T18:20:57;7.80;99.90
14357;DHT22;7262;48.764;9.166;2024-03-08T18:23:24;8.00;99.90
14357;DHT22;7262;48.764;9.166;2024-03-08T18:25:52;7.60;99.90
14357;DHT22;7262;48.764;9.166;2024-03-08T18:28:20;7.70;99.90
14357;DHT22;7262;48.764;9.166;2024-03-08T18:30:47;7.60;99.90
14357;DHT22;7262;48.764;9.166;2024-03-08T18:33:16;7.60;99.90
14357;DHT22;7262;48.764;9.166;2024-03-08T18:35:43;7.60;99.90
14357;DHT22;7262;48.764;9.166;2024-03-08T18:38:14;7.50;99.90